createdAt,value
2018-10-21T00:01:04.653Z,99.90
2018-10-21T00:03:33.012Z,99.90
2018-10-21T00:06:01.321Z,99.90
2018-10-21T00:08:29.766Z,99.90
2018-10-21T00:10:58.129Z,99.90
2018-10-21T00:13:26.544Z,99.90
2018-10-21T00:15:54.902Z,99.90
2018-10-21T00:18:23.283Z,99.90
2018-10-21T00:20:51.627Z,99.90
2018-10-21T00:23:19.956Z,99.90
2018-10-21T00:25:48.328Z,99.90
2018-10-21T00:28:16.702Z,99.90
2018-10-21T00:30:45.133Z,99.90
2018-10-21T00:33:13.573Z,99.90
2018-10-21T00:35:41.893Z,99.90
2018-10-21T00:38:10.253Z,99.90
2018-10-21T00:40:38.579Z,99.90
2018-10-21T00:43:07.000Z,99.90
2018-10-21T00:45:35.335Z,99.90
2018-10-21T00:48:03.654Z,99.90
2018-10-21T00:50:32.075Z,99.90
2018-10-21T00:53:00.414Z,99.90
2018-10-21T00:55:28.793Z,99.90
2018-10-21T00:57:57.128Z,99.90
2018-10-21T01:00:25.481Z,99.90
2018-10-21T01:02:54.161Z,99.90
2018-10-21T01:05:22.568Z,99.90
2018-10-21T01:07:50.974Z,99.90
2018-10-21T01:10:19.405Z,99.90
2018-10-21T01:12:47.840Z,99.90
2018-10-21T01:15:16.412Z,99.90
2018-10-21T01:17:44.737Z,99.90
2018-10-21T01:20:13.244Z,99.90
2018-10-21T01:22:42.259Z,99.90
2018-10-21T01:25:11.076Z,99.90
2018-10-21T01:27:40.682Z,99.90
2018-10-21T01:30:10.207Z,99.90
2018-10-21T01:32:38.588Z,99.90
2018-10-21T01:35:07.928Z,99.90
2018-10-21T01:37:36.419Z,99.90
2018-10-21T01:40:45.426Z,99.90
2018-10-21T01:43:15.205Z,99.90
2018-10-21T01:45:43.689Z,99.90
2018-10-21T01:48:13.238Z,99.90
2018-10-21T01:50:41.624Z,99.90
2018-10-21T01:53:11.127Z,99.90
2018-10-21T01:55:39.593Z,99.90
2018-10-21T01:58:08.136Z,99.90
2018-10-21T02:00:36.900Z,99.90
2018-10-21T02:03:05.587Z,99.90
2018-10-21T02:05:34.552Z,99.90
2018-10-21T02:08:02.945Z,99.90
2018-10-21T02:10:31.357Z,99.90
2018-10-21T02:12:59.703Z,99.90
2018-10-21T02:15:28.049Z,99.90
2018-10-21T02:17:56.413Z,99.90
2018-10-21T02:20:25.203Z,99.90
2018-10-21T02:22:53.727Z,99.90
2018-10-21T02:25:22.127Z,99.90
2018-10-21T02:27:51.222Z,99.90
2018-10-21T02:30:22.589Z,99.90
2018-10-21T02:32:51.665Z,99.90
2018-10-21T02:35:20.413Z,99.90
2018-10-21T02:37:49.145Z,99.90
2018-10-21T02:41:45.187Z,99.90
2018-10-21T02:44:20.805Z,99.90
2018-10-21T02:46:50.450Z,99.90
2018-10-21T02:49:19.398Z,99.90
2018-10-21T02:51:53.011Z,99.90
2018-10-21T02:54:25.297Z,99.90
2018-10-21T02:56:53.922Z,99.90
2018-10-21T02:59:22.742Z,99.90
2018-10-21T03:01:51.250Z,99.90
2018-10-21T03:04:19.784Z,99.90
2018-10-21T03:06:48.413Z,99.90
2018-10-21T03:09:16.980Z,99.90
2018-10-21T03:11:45.378Z,99.90
2018-10-21T03:14:13.923Z,99.90
2018-10-21T03:16:42.323Z,99.90
2018-10-21T03:19:10.642Z,99.90
2018-10-21T03:21:38.987Z,99.90
2018-10-21T03:24:07.331Z,99.90
2018-10-21T03:26:35.709Z,99.90
2018-10-21T03:29:04.047Z,99.90
2018-10-21T03:31:32.409Z,99.90
2018-10-21T03:34:00.944Z,99.90
2018-10-21T03:36:29.182Z,99.90
2018-10-21T03:38:57.590Z,99.90
2018-10-21T03:41:25.945Z,99.90
2018-10-21T03:43:54.259Z,99.90
2018-10-21T03:46:22.584Z,99.90
2018-10-21T03:48:51.183Z,99.90
2018-10-21T03:51:19.544Z,99.90
2018-10-21T03:53:47.991Z,99.90
2018-10-21T03:56:16.326Z,99.90
2018-10-21T03:58:44.735Z,99.90
2018-10-21T04:01:13.131Z,99.90
2018-10-21T04:03:41.468Z,99.90
2018-10-21T04:06:09.865Z,99.90
2018-10-21T04:08:38.379Z,99.90
2018-10-21T04:11:06.794Z,99.90
2018-10-21T04:13:35.225Z,99.90
2018-10-21T04:16:03.720Z,99.90
2018-10-21T04:18:32.058Z,99.90
2018-10-21T04:21:00.515Z,99.90
2018-10-21T04:23:28.956Z,99.90
2018-10-21T04:25:57.374Z,99.90
2018-10-21T04:28:25.770Z,99.90
2018-10-21T04:30:54.300Z,99.90
2018-10-21T04:33:53.090Z,99.90
2018-10-21T04:36:30.207Z,99.90
2018-10-21T04:40:08.272Z,99.90
2018-10-21T04:42:36.730Z,99.90
2018-10-21T04:45:05.545Z,99.90
2018-10-21T04:47:33.937Z,99.90
2018-10-21T04:50:02.280Z,99.90
2018-10-21T04:52:31.481Z,99.90
2018-10-21T04:55:06.437Z,99.90
2018-10-21T04:57:35.585Z,99.90
2018-10-21T05:00:04.072Z,99.90
2018-10-21T05:02:32.530Z,99.90
2018-10-21T05:05:01.021Z,99.90
2018-10-21T05:07:29.431Z,99.90
2018-10-21T05:09:57.811Z,99.90
2018-10-21T05:12:32.453Z,99.90
2018-10-21T05:15:00.810Z,99.90
2018-10-21T05:17:33.085Z,99.90
2018-10-21T05:20:01.454Z,99.90
2018-10-21T05:22:29.793Z,99.90
2018-10-21T05:24:58.190Z,99.90
2018-10-21T05:27:26.549Z,99.90
2018-10-21T05:29:54.975Z,99.90
2018-10-21T05:32:23.409Z,99.90
2018-10-21T05:34:51.765Z,99.90
2018-10-21T05:37:20.143Z,99.90
2018-10-21T05:39:48.548Z,99.90
2018-10-21T05:42:17.187Z,99.90
2018-10-21T05:44:45.625Z,99.90
2018-10-21T05:47:14.152Z,99.90
2018-10-21T05:49:42.419Z,99.90
2018-10-21T05:52:10.876Z,99.90
2018-10-21T05:54:41.160Z,99.90
2018-10-21T05:57:09.713Z,99.90
2018-10-21T05:59:38.146Z,99.90
2018-10-21T06:02:06.578Z,99.90
2018-10-21T06:04:35.022Z,99.90
2018-10-21T06:07:03.370Z,99.90
2018-10-21T06:09:31.797Z,99.90
2018-10-21T06:12:00.238Z,99.90
2018-10-21T06:14:28.634Z,99.90
2018-10-21T06:17:01.702Z,99.90
2018-10-21T06:21:38.430Z,99.90
2018-10-21T06:24:06.862Z,99.90
2018-10-21T06:26:35.288Z,99.90
2018-10-21T06:29:03.710Z,99.90
2018-10-21T06:31:32.186Z,99.90
2018-10-21T06:34:00.623Z,99.90
2018-10-21T06:36:29.044Z,99.90
2018-10-21T06:38:57.526Z,99.90
2018-10-21T06:41:25.900Z,99.90
2018-10-21T06:43:54.357Z,99.90
2018-10-21T06:46:22.765Z,99.90
2018-10-21T06:48:51.266Z,99.90
2018-10-21T06:51:19.641Z,99.90
2018-10-21T06:53:48.130Z,99.90
2018-10-21T06:56:16.676Z,99.90
2018-10-21T06:58:45.096Z,99.90
2018-10-21T07:01:13.458Z,99.90
2018-10-21T07:03:41.856Z,99.90
2018-10-21T07:06:13.206Z,99.90
2018-10-21T07:08:41.855Z,99.90
2018-10-21T07:11:10.264Z,99.90
2018-10-21T07:13:38.685Z,99.90
2018-10-21T07:16:07.585Z,99.90
2018-10-21T07:18:35.965Z,99.90
2018-10-21T07:21:04.446Z,99.90
2018-10-21T07:23:32.863Z,99.90
2018-10-21T07:26:01.707Z,99.90
2018-10-21T07:28:30.153Z,99.90
2018-10-21T07:30:58.790Z,99.90
2018-10-21T07:33:27.319Z,99.90
2018-10-21T07:35:55.728Z,99.90
2018-10-21T07:38:24.220Z,99.90
2018-10-21T07:40:52.712Z,99.90
2018-10-21T07:43:21.082Z,99.90
2018-10-21T07:45:49.542Z,99.90
2018-10-21T07:48:18.876Z,99.90
2018-10-21T07:50:47.242Z,99.90
2018-10-21T07:53:15.754Z,99.90
2018-10-21T07:55:44.266Z,99.90
2018-10-21T07:58:12.825Z,99.90
2018-10-21T08:00:41.191Z,99.90
2018-10-21T08:03:09.736Z,99.90
2018-10-21T08:05:49.323Z,99.90
2018-10-21T08:08:25.943Z,99.90
2018-10-21T08:10:54.325Z,99.90
2018-10-21T08:13:24.035Z,99.90
2018-10-21T08:15:52.431Z,99.90
2018-10-21T08:18:20.851Z,99.90
2018-10-21T08:20:50.195Z,99.90
2018-10-21T08:23:19.259Z,99.90
2018-10-21T08:25:49.050Z,99.90
2018-10-21T08:28:17.580Z,99.90
2018-10-21T08:30:45.839Z,99.90
2018-10-21T08:33:14.237Z,99.90
2018-10-21T08:35:42.659Z,99.90
2018-10-21T08:38:11.045Z,99.90
2018-10-21T08:40:39.446Z,99.90
2018-10-21T08:43:07.885Z,99.90
2018-10-21T08:45:36.342Z,99.90
2018-10-21T08:48:04.783Z,99.90
2018-10-21T08:50:33.207Z,99.90
2018-10-21T08:53:01.615Z,99.90
2018-10-21T08:55:30.107Z,99.90
2018-10-21T08:57:58.454Z,99.90
2018-10-21T09:00:26.895Z,99.90
2018-10-21T09:02:55.262Z,99.90
2018-10-21T09:05:23.851Z,99.90
2018-10-21T09:07:52.258Z,99.90
2018-10-21T09:10:20.797Z,99.90
2018-10-21T09:12:49.120Z,99.90
2018-10-21T09:15:18.791Z,99.90
2018-10-21T09:17:47.154Z,99.90
2018-10-21T09:20:16.715Z,99.90
2018-10-21T09:22:45.152Z,99.90
2018-10-21T09:25:14.048Z,99.90
2018-10-21T09:27:43.288Z,99.90
2018-10-21T09:30:13.245Z,99.90
2018-10-21T09:32:41.708Z,99.90
2018-10-21T09:35:12.216Z,99.90
2018-10-21T09:37:41.254Z,99.90
2018-10-21T09:40:11.207Z,99.90
2018-10-21T09:42:39.580Z,99.90
2018-10-21T09:45:09.234Z,99.90
2018-10-21T09:47:37.655Z,99.90
2018-10-21T09:50:06.217Z,99.20
2018-10-21T09:52:34.607Z,98.70
2018-10-21T09:55:03.231Z,98.80
2018-10-21T09:57:31.888Z,98.80
2018-10-21T10:00:00.310Z,98.10
2018-10-21T10:02:34.302Z,97.70
2018-10-21T10:05:02.996Z,97.60
2018-10-21T10:10:15.637Z,97.80
2018-10-21T10:12:44.123Z,96.70
2018-10-21T10:15:12.617Z,96.70
2018-10-21T10:17:41.504Z,93.40
2018-10-21T10:20:12.424Z,93.90
2018-10-21T10:22:42.305Z,92.90
2018-10-21T10:25:11.810Z,93.20
2018-10-21T10:27:41.178Z,92.50
2018-10-21T10:30:11.142Z,92.10
2018-10-21T10:32:41.208Z,92.50
2018-10-21T10:35:12.290Z,92.70
2018-10-21T10:37:40.931Z,92.00
2018-10-21T10:40:10.852Z,91.40
2018-10-21T10:42:39.250Z,91.80
2018-10-21T10:45:08.036Z,91.50
2018-10-21T10:47:36.766Z,90.50
2018-10-21T10:50:06.089Z,90.90
2018-10-21T10:52:34.466Z,90.60
2018-10-21T10:55:06.635Z,90.10
2018-10-21T10:57:35.004Z,89.70
2018-10-21T11:00:03.689Z,90.70
2018-10-21T11:02:31.833Z,90.80
2018-10-21T11:05:00.259Z,90.20
2018-10-21T11:07:28.933Z,90.20
2018-10-21T11:09:57.773Z,90.10
2018-10-21T11:12:26.218Z,89.30
2018-10-21T11:14:54.645Z,88.80
2018-10-21T11:17:23.104Z,89.80
2018-10-21T11:19:51.626Z,89.90
2018-10-21T11:22:20.148Z,90.00
2018-10-21T11:24:59.651Z,88.90
2018-10-21T11:27:34.663Z,90.10
2018-10-21T11:30:03.123Z,89.60
2018-10-21T11:32:31.715Z,87.60
2018-10-21T11:35:00.699Z,86.60
2018-10-21T11:37:29.746Z,85.30
2018-10-21T11:39:58.232Z,85.10
2018-10-21T11:42:26.660Z,86.40
2018-10-21T11:44:55.136Z,85.10
2018-10-21T11:47:23.718Z,86.00
2018-10-21T11:49:52.252Z,85.90
2018-10-21T11:52:20.777Z,85.40
2018-10-21T11:54:49.081Z,84.30
2018-10-21T11:57:17.644Z,84.80
2018-10-21T11:59:46.107Z,85.70
2018-10-21T12:02:14.528Z,85.70
2018-10-21T12:04:42.937Z,86.80
2018-10-21T12:07:11.393Z,84.40
2018-10-21T12:09:39.805Z,83.40
2018-10-21T12:12:08.460Z,84.80
2018-10-21T12:14:37.160Z,85.40
2018-10-21T12:17:05.757Z,85.10
2018-10-21T12:19:34.349Z,85.50
2018-10-21T12:22:02.790Z,82.60
2018-10-21T12:24:31.197Z,82.50
2018-10-21T12:26:59.593Z,82.00
2018-10-21T12:29:28.010Z,82.50
2018-10-21T12:31:56.404Z,83.00
2018-10-21T12:34:24.837Z,83.70
2018-10-21T12:36:53.270Z,84.20
2018-10-21T12:39:21.739Z,84.40
2018-10-21T12:41:50.317Z,85.70
2018-10-21T12:44:18.720Z,84.20
2018-10-21T12:46:47.131Z,84.80
2018-10-21T12:49:15.551Z,84.60
2018-10-21T12:51:43.914Z,84.40
2018-10-21T12:54:12.407Z,85.50
2018-10-21T12:56:40.926Z,85.70
2018-10-21T12:59:09.518Z,86.00
2018-10-21T13:01:37.944Z,86.20
2018-10-21T13:04:06.368Z,85.90
2018-10-21T13:06:34.752Z,86.10
2018-10-21T13:09:03.257Z,87.30
2018-10-21T13:11:31.650Z,88.10
2018-10-21T13:14:00.042Z,87.80
2018-10-21T13:16:28.460Z,87.80
2018-10-21T13:18:56.919Z,89.30
2018-10-21T13:21:25.322Z,89.00
2018-10-21T13:23:53.811Z,88.10
2018-10-21T13:26:22.184Z,88.80
2018-10-21T13:28:50.628Z,89.00
2018-10-21T13:31:19.946Z,87.30
2018-10-21T13:33:48.281Z,88.20
2018-10-21T13:36:16.690Z,88.30
2018-10-21T13:38:45.716Z,88.20
2018-10-21T13:41:14.198Z,86.90
2018-10-21T13:43:42.658Z,86.40
2018-10-21T13:46:11.197Z,85.50
2018-10-21T13:48:39.565Z,83.70
2018-10-21T13:51:07.948Z,82.20
2018-10-21T13:53:36.455Z,82.40
2018-10-21T13:56:04.909Z,82.50
2018-10-21T13:58:33.346Z,81.00
2018-10-21T14:01:01.900Z,79.60
2018-10-21T14:03:30.199Z,79.20
2018-10-21T14:05:58.646Z,79.80
2018-10-21T14:08:27.001Z,81.20
2018-10-21T14:10:55.359Z,81.20
2018-10-21T14:13:23.727Z,80.70
2018-10-21T14:15:52.216Z,81.80
2018-10-21T14:18:20.670Z,82.00
2018-10-21T14:20:49.061Z,83.40
2018-10-21T14:23:17.473Z,84.30
2018-10-21T14:25:45.839Z,82.60
2018-10-21T14:28:14.232Z,81.90
2018-10-21T14:30:42.576Z,81.30
2018-10-21T14:33:11.909Z,81.20
2018-10-21T14:35:40.227Z,81.30
2018-10-21T14:38:08.612Z,80.50
2018-10-21T14:40:37.466Z,80.70
2018-10-21T14:43:05.851Z,82.30
2018-10-21T14:45:34.296Z,81.50
2018-10-21T14:48:02.756Z,81.30
2018-10-21T14:50:31.126Z,81.80
2018-10-21T14:52:59.495Z,80.80
2018-10-21T14:55:27.921Z,80.80
2018-10-21T14:57:56.298Z,80.10
2018-10-21T15:00:24.737Z,80.00
2018-10-21T15:02:53.062Z,79.60
2018-10-21T15:05:21.428Z,80.10
2018-10-21T15:07:49.891Z,80.30
2018-10-21T15:10:18.350Z,81.30
2018-10-21T15:12:46.719Z,82.40
2018-10-21T15:15:15.036Z,84.10
2018-10-21T15:17:45.449Z,84.50
2018-10-21T15:20:14.216Z,85.00
2018-10-21T15:22:43.032Z,83.60
2018-10-21T15:25:12.165Z,84.30
2018-10-21T15:27:41.090Z,84.00
2018-10-21T15:30:10.304Z,84.90
2018-10-21T15:32:39.062Z,86.20
2018-10-21T15:35:07.479Z,87.10
2018-10-21T15:37:35.856Z,87.90
2018-10-21T15:40:04.266Z,88.70
2018-10-21T15:42:32.624Z,89.10
2018-10-21T15:45:01.084Z,90.10
2018-10-21T15:47:29.537Z,90.20
2018-10-21T15:49:57.978Z,90.30
2018-10-21T15:52:26.534Z,90.50
2018-10-21T15:54:54.870Z,90.80
2018-10-21T15:57:23.236Z,90.70
2018-10-21T15:59:51.571Z,91.00
2018-10-21T16:02:19.990Z,91.10
2018-10-21T16:04:48.258Z,91.20
2018-10-21T16:07:16.651Z,91.30
2018-10-21T16:09:45.223Z,91.50
2018-10-21T16:12:13.707Z,91.80
2018-10-21T16:14:42.144Z,92.00
2018-10-21T16:17:13.176Z,92.20
2018-10-21T16:19:41.600Z,92.50
2018-10-21T16:22:10.597Z,93.20
2018-10-21T16:24:39.030Z,93.00
2018-10-21T16:27:07.422Z,93.10
2018-10-21T16:29:36.960Z,93.30
2018-10-21T16:32:13.650Z,93.40
2018-10-21T16:34:41.905Z,93.80
2018-10-21T16:37:10.399Z,94.00
2018-10-21T16:39:38.844Z,94.40
2018-10-21T16:42:07.170Z,95.20
2018-10-21T16:44:35.520Z,94.90
2018-10-21T16:47:03.851Z,95.20
2018-10-21T16:49:32.143Z,95.40
2018-10-21T16:52:00.574Z,95.40
2018-10-21T16:54:28.943Z,95.50
2018-10-21T16:56:57.283Z,95.60
2018-10-21T16:59:25.729Z,95.80
2018-10-21T17:01:54.009Z,95.90
2018-10-21T17:04:22.505Z,96.40
2018-10-21T17:06:50.825Z,96.70
2018-10-21T17:09:19.367Z,97.20
2018-10-21T17:11:47.605Z,97.10
2018-10-21T17:14:15.928Z,97.30
2018-10-21T17:16:44.331Z,97.30
2018-10-21T17:19:12.825Z,97.40
2018-10-21T17:21:41.056Z,97.40
2018-10-21T17:24:09.506Z,97.70
2018-10-21T17:26:37.877Z,97.80
2018-10-21T17:29:06.293Z,98.20
2018-10-21T17:31:34.651Z,98.50
2018-10-21T17:34:03.035Z,99.10
2018-10-21T17:36:31.441Z,99.70
2018-10-21T17:38:59.850Z,99.90
2018-10-21T17:41:28.181Z,99.90
2018-10-21T17:43:56.488Z,99.90
2018-10-21T17:46:24.876Z,99.90
2018-10-21T17:48:54.189Z,99.90
2018-10-21T17:51:22.469Z,99.90
2018-10-21T17:53:50.842Z,99.90
2018-10-21T17:56:19.157Z,99.90
2018-10-21T17:58:47.506Z,99.90
2018-10-21T18:01:15.911Z,99.90
2018-10-21T18:03:44.281Z,99.90
2018-10-21T18:06:12.632Z,99.90
2018-10-21T18:08:40.926Z,99.90
2018-10-21T18:11:09.310Z,99.90
2018-10-21T18:13:37.645Z,99.90
2018-10-21T18:16:06.068Z,99.90
2018-10-21T18:18:34.368Z,99.90
2018-10-21T18:21:02.713Z,99.90
2018-10-21T18:23:31.106Z,99.90
2018-10-21T18:25:59.420Z,99.90
2018-10-21T18:28:27.722Z,99.90
2018-10-21T18:30:56.123Z,99.90
2018-10-21T18:33:24.483Z,99.90
2018-10-21T18:35:52.779Z,99.90
2018-10-21T18:38:21.157Z,99.90
2018-10-21T18:40:49.629Z,99.90
2018-10-21T18:43:17.839Z,99.90
2018-10-21T18:45:46.170Z,99.90
2018-10-21T18:48:14.516Z,99.90
2018-10-21T18:50:42.907Z,99.90
2018-10-21T18:53:11.256Z,99.90
2018-10-21T18:55:39.589Z,99.90
2018-10-21T18:58:07.921Z,99.90
2018-10-21T19:00:36.264Z,99.90
2018-10-21T19:03:04.633Z,99.90
2018-10-21T19:05:32.961Z,99.90
2018-10-21T19:08:01.290Z,99.90
2018-10-21T19:10:29.674Z,99.90
2018-10-21T19:13:00.050Z,99.90
2018-10-21T19:15:26.372Z,99.90
2018-10-21T19:17:54.730Z,99.90
2018-10-21T19:20:23.052Z,99.90
2018-10-21T19:22:51.418Z,99.90
2018-10-21T19:25:19.989Z,99.90
2018-10-21T19:27:48.193Z,99.90
2018-10-21T19:30:16.574Z,99.90
2018-10-21T19:32:44.917Z,99.90
2018-10-21T19:35:14.213Z,99.90
2018-10-21T19:37:42.557Z,99.90
2018-10-21T19:40:13.216Z,99.90
2018-10-21T19:42:42.020Z,99.90
2018-10-21T19:45:11.252Z,99.90
2018-10-21T19:47:39.937Z,99.90
2018-10-21T19:50:09.816Z,99.90
2018-10-21T19:52:38.499Z,99.90
2018-10-21T19:55:06.904Z,99.90
2018-10-21T19:57:35.248Z,99.90
2018-10-21T20:00:04.168Z,99.90
2018-10-21T20:02:32.527Z,99.90
2018-10-21T20:05:00.847Z,99.90
2018-10-21T20:07:29.238Z,99.90
2018-10-21T20:09:57.598Z,99.90
2018-10-21T20:12:25.886Z,99.90
2018-10-21T20:14:54.440Z,99.90
2018-10-21T20:17:23.097Z,99.90
2018-10-21T20:19:51.412Z,99.90
2018-10-21T20:22:19.706Z,99.90
2018-10-21T20:24:48.033Z,99.90
2018-10-21T20:27:16.394Z,99.90
2018-10-21T20:29:45.716Z,99.90
2018-10-21T20:32:14.121Z,99.90
2018-10-21T20:34:42.407Z,99.90
2018-10-21T20:37:10.727Z,99.90
2018-10-21T20:39:39.086Z,99.90
2018-10-21T20:42:07.516Z,99.90
2018-10-21T20:44:35.756Z,99.90
2018-10-21T20:47:04.097Z,99.90
2018-10-21T20:49:32.414Z,99.90
2018-10-21T20:52:00.838Z,99.90
2018-10-21T20:54:34.408Z,99.90
2018-10-21T20:57:07.944Z,99.90
2018-10-21T20:59:36.893Z,99.90
2018-10-21T21:02:05.678Z,99.90
2018-10-21T21:04:34.092Z,99.90
2018-10-21T21:07:02.430Z,99.90
2018-10-21T21:09:30.747Z,99.90
2018-10-21T21:11:59.092Z,99.90
2018-10-21T21:14:27.427Z,99.90
2018-10-21T21:16:55.803Z,99.90
2018-10-21T21:19:24.183Z,99.90
2018-10-21T21:21:52.646Z,99.90
2018-10-21T21:24:20.928Z,99.90
2018-10-21T21:26:49.593Z,99.90
2018-10-21T21:29:18.019Z,99.90
2018-10-21T21:31:46.737Z,99.90
2018-10-21T21:34:15.588Z,99.90
2018-10-21T21:36:43.837Z,99.90
2018-10-21T21:39:13.504Z,99.90
2018-10-21T21:41:43.103Z,99.90
2018-10-21T21:44:11.514Z,99.90
2018-10-21T21:46:40.662Z,99.90
2018-10-21T21:49:10.235Z,99.90
2018-10-21T21:51:39.054Z,99.90
2018-10-21T21:54:08.281Z,99.90
2018-10-21T21:56:36.610Z,99.90
2018-10-21T21:59:05.140Z,99.90
2018-10-21T22:01:33.514Z,99.90
2018-10-21T22:04:01.964Z,99.90
2018-10-21T22:06:30.229Z,99.90
2018-10-21T22:08:58.842Z,99.90
2018-10-21T22:11:27.169Z,99.90
2018-10-21T22:13:55.495Z,99.90
2018-10-21T22:16:23.956Z,99.90
2018-10-21T22:18:52.300Z,99.90
2018-10-21T22:21:20.611Z,99.90
2018-10-21T22:23:49.035Z,99.90
2018-10-21T22:26:17.432Z,99.90
2018-10-21T22:28:45.757Z,99.90
2018-10-21T22:31:14.069Z,99.90
2018-10-21T22:33:42.386Z,99.90
2018-10-21T22:36:10.845Z,99.90
2018-10-21T22:38:39.141Z,99.90
2018-10-21T22:41:07.543Z,99.90
2018-10-21T22:43:35.937Z,99.90
2018-10-21T22:46:04.370Z,99.90
2018-10-21T22:48:32.648Z,99.90
2018-10-21T22:51:01.027Z,99.90
2018-10-21T22:53:29.392Z,99.90
2018-10-21T22:55:57.674Z,99.90
2018-10-21T22:58:26.021Z,99.90
2018-10-21T23:00:54.339Z,99.90
2018-10-21T23:03:22.627Z,99.90
2018-10-21T23:05:50.989Z,99.90
2018-10-21T23:08:19.306Z,99.90
2018-10-21T23:10:47.621Z,99.90
2018-10-21T23:13:16.021Z,99.90
2018-10-21T23:15:44.341Z,99.90
2018-10-21T23:18:12.689Z,99.90
2018-10-21T23:20:40.925Z,99.90
2018-10-21T23:23:09.261Z,99.90
2018-10-21T23:25:37.571Z,99.90
2018-10-21T23:28:05.982Z,99.90
2018-10-21T23:30:34.285Z,99.90
2018-10-21T23:33:03.847Z,99.90
2018-10-21T23:35:32.153Z,99.90
2018-10-21T23:38:00.454Z,99.90
2018-10-21T23:40:28.874Z,99.90
2018-10-21T23:42:57.400Z,99.90
2018-10-21T23:45:25.804Z,99.90
2018-10-21T23:47:54.153Z,99.90
2018-10-21T23:50:22.394Z,99.90
2018-10-21T23:52:50.704Z,99.90
2018-10-21T23:55:19.027Z,99.90
2018-10-21T23:57:47.334Z,99.90
